Date,TemperatureHighF,TemperatureAvgF,TemperatureLowF,DewpointHighF,DewpointAvgF,DewpointLowF,HumidityHigh,HumidityAvg,HumidityLow,PressureMaxIn,PressureMinIn,WindSpeedMaxMPH,WindSpeedAvgMPH,GustSpeedMaxMPH,PrecipitationSumIn
2013-2-1,32.2,29.8,25.9,17.0,15.1,11.9,63,54,44,30.19,29.75,7,1,27,0.00
2013-2-2,30.4,26.2,21.7,19.9,12.8,9.6,76,57,46,30.27,30.02,7,0,25,0.00
2013-2-3,31.3,28.2,25.3,22.0,20.5,18.6,82,73,63,30.02,29.75,10,1,27,0.00
2013-2-4,30.4,28.3,25.0,21.8,15.0,13.0,72,57,50,29.94,29.77,10,0,22,0.00
2013-2-5,31.6,30.1,28.9,27.9,24.3,17.0,86,79,58,29.95,29.86,13,3,27,0.00
2013-2-6,38.7,34.2,30.7,29.3,23.9,10.0,89,68,41,30.32,29.88,10,1,27,0.00
2013-2-7,32.2,30.1,27.7,22.8,13.7,9.1,68,50,40,30.48,30.30,13,3,28,0.00
2013-2-8,34.2,32.3,28.8,31.9,28.7,23.2,94,87,69,30.30,29.59,35,8,35,1.50
2013-2-9,31.6,28.6,23.5,27.5,20.4,11.3,93,73,51,30.30,29.71,13,1,27,0.00
2013-2-10,33.3,27.0,20.5,23.8,15.9,10.4,70,63,56,30.46,30.28,10,0,27,0.00
2013-2-11,45.0,39.6,33.1,43.4,35.9,23.8,94,87,67,30.29,29.62,3,0,22,0.65
2013-2-12,45.0,41.7,38.3,41.3,30.9,26.8,93,66,58,29.94,29.69,7,0,16,0.00
2013-2-13,43.0,38.6,34.9,30.7,27.4,24.4,82,64,58,29.92,29.66,10,0,27,0.04
2013-2-14,43.5,38.7,34.3,33.8,30.6,27.7,84,73,58,29.97,29.67,13,0,25,0.02
2013-2-15,49.8,43.0,38.1,38.9,34.7,31.1,79,72,62,29.98,29.88,7,0,25,0.00
2013-2-16,43.0,36.3,32.2,33.6,27.3,18.7,84,70,57,29.93,29.70,13,2,27,0.04
2013-2-17,32.0,27.7,19.6,18.5,10.2,3.3,57,48,40,29.97,29.62,29,4,29,0.00
2013-2-18,34.3,26.4,18.7,16.9,10.3,4.8,56,50,43,30.20,29.96,10,1,27,0.00
2013-2-19,46.9,40.3,32.7,41.9,30.4,16.9,88,68,49,30.17,29.64,10,0,25,0.02
2013-2-20,39.6,32.5,27.0,29.6,18.3,12.7,67,55,48,29.94,29.69,13,1,27,0.00
2013-2-21,33.6,29.0,26.2,17.9,15.2,13.0,62,56,51,30.24,29.93,10,2,27,0.00
2013-2-22,37.4,32.4,26.6,30.9,23.0,15.7,77,68,62,30.37,30.23,13,2,28,0.00
2013-2-23,40.3,37.4,36.0,38.2,34.4,30.9,92,89,77,30.25,29.78,19,2,27,0.33
2013-2-24,47.1,40.1,34.9,38.3,33.0,24.0,92,76,61,29.93,29.70,10,2,27,0.04
2013-2-25,43.7,39.0,33.4,30.3,27.7,24.1,72,64,57,30.20,29.93,13,1,27,0.00
2013-2-26,43.9,39.4,35.8,34.8,31.8,28.7,89,74,64,30.26,29.86,26,3,27,0.12
2013-2-27,46.2,41.1,35.8,44.8,38.5,32.9,95,91,80,29.87,29.47,35,7,35,1.50
2013-2-28,48.7,44.7,40.3,38.6,36.1,31.7,81,72,62,29.59,29.51,7,0,27,0.00